Time;durP1;ratioP1;P1;durP2;ratioP2;P2;SDS_P1;SDS_P2;PMS_P1;PMS_P2;Temp;Humidity;BMP_temperature;BMP_pressure;BME280_temperature;BME280_humidity;BME280_pressure;Samples;Min_cycle;Max_cycle;Signal;HPM_P1;HPM_P2
2021/06/04 00:01:10;;;;;;;4.63;3.38;;;19.30;99.90;;;;;;5064336;28;20708;-71
2021/06/04 00:03:36;;;;;;;6.45;4.10;;;19.30;99.90;;;;;;5091826;28;20220;-72
2021/06/04 00:06:06;;;;;;;6.63;3.95;;;19.30;99.90;;;;;;5091673;28;20218;-73
2021/06/04 00:08:34;;;;;;;6.28;3.42;;;19.20;99.90;;;;;;5091899;28;20233;-73
2021/06/04 00:11:03;;;;;;;6.55;4.38;;;19.10;99.90;;;;;;5092193;28;20689;-74
2021/06/04 00:13:33;;;;;;;4.10;3.70;;;19.10;99.90;;;;;;5091726;28;20251;-73
2021/06/04 00:16:03;;;;;;;6.03;3.92;;;19.10;99.90;;;;;;5091793;28;20208;-73
2021/06/04 00:18:32;;;;;;;6.03;4.32;;;19.20;99.90;;;;;;5091504;28;20204;-74
2021/06/04 00:21:00;;;;;;;5.00;4.57;;;19.20;99.90;;;;;;5091687;28;20251;-72
2021/06/04 00:23:27;;;;;;;4.43;4.03;;;19.10;99.90;;;;;;5091349;28;20201;-72
2021/06/04 00:25:54;;;;;;;5.30;4.25;;;19.10;99.90;;;;;;5091700;28;20213;-72
2021/06/04 00:28:20;;;;;;;5.43;3.50;;;19.10;99.90;;;;;;5091936;28;20229;-73
2021/06/04 00:30:47;;;;;;;4.32;3.67;;;19.00;99.90;;;;;;5091523;28;20620;-72
2021/06/04 00:33:13;;;;;;;4.72;3.72;;;19.10;99.90;;;;;;5091611;28;20243;-72
2021/06/04 00:35:42;;;;;;;8.60;4.40;;;19.20;99.90;;;;;;5091564;28;20197;-72
2021/06/04 00:38:09;;;;;;;5.40;3.60;;;19.10;99.90;;;;;;5091781;28;20209;-72
2021/06/04 00:40:46;;;;;;;4.65;3.08;;;19.10;99.90;;;;;;5090892;28;20202;-74
2021/06/04 00:43:13;;;;;;;5.93;3.65;;;19.20;99.90;;;;;;5091456;28;20669;-73
2021/06/04 00:45:43;;;;;;;6.25;3.42;;;19.30;99.90;;;;;;5090628;28;20665;-73
2021/06/04 00:48:10;;;;;;;4.15;3.67;;;19.20;99.90;;;;;;5091611;28;20240;-73
2021/06/04 00:50:43;;;;;;;6.47;4.78;;;19.20;99.90;;;;;;5090885;28;20204;-73
2021/06/04 00:53:09;;;;;;;11.43;4.07;;;19.30;99.90;;;;;;5091313;28;20699;-73
2021/06/04 00:55:37;;;;;;;5.05;3.53;;;19.30;99.90;;;;;;5090652;28;20856;-73
2021/06/04 00:58:04;;;;;;;6.68;3.92;;;19.30;99.90;;;;;;5091291;28;20323;-73
2021/06/04 01:00:34;;;;;;;4.35;3.90;;;19.40;99.90;;;;;;5090748;28;20270;-73
2021/06/04 01:03:01;;;;;;;5.50;3.92;;;19.30;99.90;;;;;;5091129;28;20202;-73
2021/06/04 01:05:31;;;;;;;6.75;4.15;;;19.30;99.90;;;;;;5090494;28;20201;-74
2021/06/04 01:08:29;;;;;;;4.53;3.92;;;19.30;99.90;;;;;;5090952;28;20221;-73
2021/06/04 01:11:08;;;;;;;5.57;3.65;;;19.40;99.90;;;;;;5080167;28;20209;-72
2021/06/04 01:13:50;;;;;;;7.55;4.03;;;19.30;99.90;;;;;;5090715;28;20205;-72
2021/06/04 01:16:22;;;;;;;6.57;4.22;;;19.30;99.90;;;;;;5090945;28;20209;-73
2021/06/04 01:19:03;;;;;;;7.90;4.68;;;19.30;99.90;;;;;;5091000;28;20225;-73
2021/06/04 01:21:37;;;;;;;5.72;3.72;;;19.30;99.90;;;;;;5090268;28;20267;-72
2021/06/04 01:24:14;;;;;;;9.00;4.90;;;19.20;99.90;;;;;;5090428;28;20746;-72
2021/06/04 01:26:46;;;;;;;7.10;3.72;;;19.20;99.90;;;;;;5089662;28;20204;-73
2021/06/04 01:29:16;;;;;;;4.53;4.10;;;19.20;99.90;;;;;;5090734;28;20234;-73
2021/06/04 01:31:48;;;;;;;7.90;3.65;;;19.20;99.90;;;;;;5090298;28;20209;-73
2021/06/04 01:34:20;;;;;;;4.55;4.00;;;19.10;99.90;;;;;;5090776;28;20205;-72
2021/06/04 01:36:51;;;;;;;6.55;4.30;;;19.20;99.90;;;;;;5090340;28;20291;-74
2021/06/04 01:39:21;;;;;;;5.50;4.03;;;19.20;99.90;;;;;;5090688;28;20217;-73
2021/06/04 01:41:50;;;;;;;8.07;4.93;;;19.10;99.90;;;;;;5090157;28;20212;-73
2021/06/04 01:44:23;;;;;;;5.45;3.83;;;19.00;99.90;;;;;;5091032;28;20216;-72
2021/06/04 01:46:52;;;;;;;7.90;4.15;;;19.00;99.90;;;;;;5090628;28;20210;-73
2021/06/04 01:49:23;;;;;;;6.57;4.30;;;19.00;99.90;;;;;;5090675;28;20259;-73
2021/06/04 01:51:54;;;;;;;4.45;4.07;;;18.90;99.90;;;;;;5090920;28;20205;-73
2021/06/04 01:54:25;;;;;;;8.55;5.47;;;18.80;99.90;;;;;;5090596;28;20209;-72
2021/06/04 01:56:57;;;;;;;7.80;4.45;;;18.90;99.90;;;;;;5090934;28;20208;-73
2021/06/04 01:59:28;;;;;;;6.65;4.28;;;18.90;99.90;;;;;;5061843;28;20661;-72
2021/06/04 02:01:55;;;;;;;8.25;4.20;;;19.10;99.90;;;;;;5090509;28;20258;-72
2021/06/04 02:04:26;;;;;;;7.78;4.78;;;19.10;99.90;;;;;;5090513;28;20205;-72
2021/06/04 02:06:53;;;;;;;7.18;4.93;;;18.90;99.90;;;;;;5090155;28;20213;-72
2021/06/04 02:09:23;;;;;;;6.70;4.47;;;18.90;99.90;;;;;;5087655;28;20780;-72
2021/06/04 02:11:50;;;;;;;7.28;4.55;;;19.00;99.90;;;;;;5067876;28;20228;-72
2021/06/04 02:14:22;;;;;;;8.43;4.50;;;19.10;99.90;;;;;;5070310;28;20210;-72
2021/06/04 02:17:14;;;;;;;5.65;4.30;;;19.10;99.90;;;;;;5070002;28;20210;-72
2021/06/04 02:19:53;;;;;;;5.47;4.60;;;19.10;99.90;;;;;;5069748;28;20202;-72
2021/06/04 02:22:25;;;;;;;14.63;4.88;;;19.00;99.90;;;;;;5055986;28;20221;-72
2021/06/04 02:25:00;;;;;;;6.07;4.53;;;19.00;99.90;;;;;;5069869;28;20589;-72
2021/06/04 02:27:31;;;;;;;6.32;5.47;;;19.00;99.90;;;;;;5069570;28;20204;-73
2021/06/04 02:30:07;;;;;;;7.35;4.50;;;19.00;99.90;;;;;;5069828;28;20206;-73
2021/06/04 02:32:40;;;;;;;8.43;4.95;;;19.10;99.90;;;;;;5069577;28;20210;-73
2021/06/04 02:35:12;;;;;;;6.57;4.28;;;19.00;99.90;;;;;;5070043;28;20381;-73
2021/06/04 02:37:42;;;;;;;7.80;3.90;;;19.10;99.90;;;;;;5070784;28;20202;-72
2021/06/04 02:40:14;;;;;;;6.57;4.70;;;19.10;99.90;;;;;;5073384;28;20735;-73
2021/06/04 02:42:45;;;;;;;7.35;5.38;;;19.10;99.90;;;;;;5073200;28;20684;-74
2021/06/04 02:45:22;;;;;;;7.80;5.25;;;19.00;99.90;;;;;;5073561;28;20214;-73
2021/06/04 02:47:52;;;;;;;6.78;5.32;;;19.10;99.90;;;;;;5073608;28;20202;-74
2021/06/04 02:50:25;;;;;;;7.65;5.80;;;19.10;99.90;;;;;;5073556;28;20224;-73
2021/06/04 02:52:52;;;;;;;6.15;4.40;;;19.10;99.90;;;;;;5073005;28;20198;-73
2021/06/04 02:55:31;;;;;;;7.13;4.32;;;19.00;99.90;;;;;;5073570;28;20202;-74
2021/06/04 02:57:57;;;;;;;6.82;4.43;;;19.00;99.90;;;;;;5072991;28;20213;-72
2021/06/04 03:00:30;;;;;;;8.63;5.03;;;19.10;99.90;;;;;;5073032;28;20214;-73
2021/06/04 03:02:56;;;;;;;12.18;5.40;;;19.10;99.90;;;;;;5072818;28;20205;-72
2021/06/04 03:05:37;;;;;;;6.20;4.95;;;19.00;99.90;;;;;;5073356;28;20279;-74
2021/06/04 03:08:05;;;;;;;8.68;5.85;;;18.90;99.90;;;;;;5073028;28;20229;-73
2021/06/04 03:10:37;;;;;;;8.43;5.40;;;18.90;99.90;;;;;;5072600;28;20255;-73
2021/06/04 03:13:04;;;;;;;12.48;5.20;;;18.80;99.90;;;;;;5072872;28;20206;-73
2021/06/04 03:15:36;;;;;;;11.13;6.70;;;18.80;99.90;;;;;;5072399;28;20206;-72
2021/06/04 03:18:02;;;;;;;9.75;5.05;;;18.70;99.90;;;;;;5072866;28;20202;-73
2021/06/04 03:20:33;;;;;;;5.53;4.93;;;18.70;99.90;;;;;;5072580;28;20206;-73
2021/06/04 03:23:00;;;;;;;9.70;4.97;;;18.80;99.90;;;;;;5072716;28;20226;-72
2021/06/04 03:25:30;;;;;;;12.00;4.80;;;18.90;99.90;;;;;;5072389;28;20574;-72
2021/06/04 03:27:57;;;;;;;6.65;5.50;;;18.70;99.90;;;;;;5072416;28;20230;-72
2021/06/04 03:30:27;;;;;;;10.82;5.13;;;18.70;99.90;;;;;;5072224;28;20206;-73
2021/06/04 03:32:56;;;;;;;5.68;5.18;;;18.80;99.90;;;;;;5072478;28;20202;-73
2021/06/04 03:35:24;;;;;;;6.60;4.97;;;18.90;99.90;;;;;;5072328;28;20199;-72
2021/06/04 03:37:51;;;;;;;8.50;5.50;;;18.80;99.90;;;;;;5072788;28;20210;-73
2021/06/04 03:40:21;;;;;;;7.75;4.45;;;18.80;99.90;;;;;;5072834;28;20263;-73
2021/06/04 03:42:49;;;;;;;6.75;5.10;;;18.80;99.90;;;;;;5072713;28;20206;-73
2021/06/04 03:45:18;;;;;;;7.03;4.75;;;18.80;99.90;;;;;;5072414;28;20206;-73
2021/06/04 03:47:44;;;;;;;6.03;5.00;;;18.90;99.90;;;;;;5071976;28;20255;-72
2021/06/04 03:50:14;;;;;;;9.90;5.40;;;18.80;99.90;;;;;;5071699;28;20202;-73
2021/06/04 03:52:42;;;;;;;6.63;5.95;;;18.70;99.90;;;;;;5058090;28;21068;-73
2021/06/04 03:55:09;;;;;;;6.75;5.68;;;18.70;99.90;;;;;;5072376;28;20217;-73
2021/06/04 03:57:38;;;;;;;7.60;4.88;;;18.60;99.90;;;;;;5071690;28;20259;-74
2021/06/04 04:00:08;;;;;;;7.32;5.28;;;18.60;99.90;;;;;;5072397;28;20214;-73
2021/06/04 04:02:35;;;;;;;8.05;5.30;;;18.70;99.90;;;;;;5071596;28;20228;-73
2021/06/04 04:05:01;;;;;;;6.15;5.32;;;18.70;99.90;;;;;;5071688;28;20210;-73
2021/06/04 04:07:30;;;;;;;11.65;5.47;;;18.70;99.90;;;;;;5071160;28;20583;-73
2021/06/04 04:09:57;;;;;;;9.52;6.50;;;18.70;99.90;;;;;;5072118;28;20607;-73
2021/06/04 04:12:25;;;;;;;6.43;5.82;;;18.70;99.90;;;;;;5071257;28;20244;-73
2021/06/04 04:14:52;;;;;;;8.27;5.70;;;18.80;99.90;;;;;;5071725;28;20202;-73
2021/06/04 04:17:20;;;;;;;9.63;7.30;;;18.80;99.90;;;;;;5072276;28;20213;-73
2021/06/04 04:19:46;;;;;;;11.82;8.15;;;18.70;99.90;;;;;;5071006;28;20210;-73
2021/06/04 04:22:13;;;;;;;9.43;8.38;;;18.70;99.90;;;;;;5071489;28;20210;-73
2021/06/04 04:24:41;;;;;;;12.15;8.10;;;18.70;99.90;;;;;;5071210;28;20210;-73
2021/06/04 04:27:09;;;;;;;11.40;8.73;;;18.50;99.90;;;;;;5071529;28;20202;-74
2021/06/04 04:29:36;;;;;;;8.82;8.00;;;18.60;99.90;;;;;;5071288;28;20222;-74
2021/06/04 04:32:12;;;;;;;11.90;7.85;;;18.60;99.90;;;;;;5071419;28;20214;-74
2021/06/04 04:34:39;;;;;;;24.65;9.48;;;18.60;99.90;;;;;;5070694;28;20202;-74
2021/06/04 04:37:06;;;;;;;17.08;9.05;;;18.60;99.90;;;;;;5071166;28;20211;-74
2021/06/04 04:39:35;;;;;;;15.77;9.20;;;18.60;99.90;;;;;;5071104;28;20221;-74
2021/06/04 04:42:06;;;;;;;9.48;7.65;;;18.70;99.90;;;;;;5071284;28;20206;-73
2021/06/04 04:44:35;;;;;;;12.07;8.35;;;18.60;99.90;;;;;;5070840;28;20210;-73
2021/06/04 04:47:03;;;;;;;9.15;7.75;;;18.50;99.90;;;;;;5070721;28;20206;-73
2021/06/04 04:49:30;;;;;;;12.65;8.48;;;18.50;99.90;;;;;;5070935;28;20230;-72
2021/06/04 04:51:56;;;;;;;8.43;7.60;;;18.40;99.90;;;;;;5071251;28;20202;-72
2021/06/04 04:54:23;;;;;;;11.73;7.85;;;18.40;99.90;;;;;;5057142;28;20202;-72
2021/06/04 04:56:50;;;;;;;9.50;8.20;;;18.40;99.90;;;;;;5071206;28;20210;-73
2021/06/04 04:59:20;;;;;;;12.15;7.88;;;18.40;99.90;;;;;;5072022;28;20206;-74
2021/06/04 05:01:47;;;;;;;8.65;7.47;;;18.60;99.90;;;;;;5075402;28;20206;-73
2021/06/04 05:04:13;;;;;;;8.90;7.88;;;18.70;99.90;;;;;;5075652;28;20210;-73
2021/06/04 05:06:40;;;;;;;10.35;7.65;;;18.70;99.90;;;;;;5070508;28;20259;-73
2021/06/04 05:09:07;;;;;;;8.60;7.40;;;18.70;99.90;;;;;;5070348;28;20233;-75
2021/06/04 05:11:34;;;;;;;8.93;7.22;;;18.70;99.90;;;;;;5072620;28;20673;-73
2021/06/04 05:14:01;;;;;;;12.88;7.25;;;18.80;99.90;;;;;;5070029;28;20202;-77
2021/06/04 05:16:29;;;;;;;13.18;7.13;;;18.80;99.90;;;;;;5069699;28;20198;-75
2021/06/04 05:18:55;;;;;;;11.30;6.82;;;18.90;99.90;;;;;;5070515;28;20205;-76
2021/06/04 05:21:22;;;;;;;8.48;6.78;;;18.90;99.90;;;;;;5070331;28;20218;-74
2021/06/04 05:23:49;;;;;;;10.77;7.88;;;19.00;99.90;;;;;;5071112;28;20206;-75
2021/06/04 05:26:15;;;;;;;9.13;7.05;;;19.00;99.90;;;;;;5070546;28;20202;-77
2021/06/04 05:28:42;;;;;;;7.82;6.68;;;19.10;99.90;;;;;;5069947;28;20798;-82
2021/06/04 05:31:11;;;;;;;13.07;7.78;;;19.00;99.90;;;;;;5070582;28;20293;-80
2021/06/04 05:33:42;;;;;;;9.43;7.32;;;18.90;99.90;;;;;;5070237;28;20693;-82
2021/06/04 05:36:11;;;;;;;10.18;6.60;;;18.80;99.90;;;;;;5070934;28;20213;-82
2021/06/04 05:38:38;;;;;;;8.65;5.47;;;18.80;99.90;;;;;;5069534;28;20664;-81
2021/06/04 05:41:05;;;;;;;5.82;5.32;;;18.80;99.90;;;;;;5070345;28;20213;-84
2021/06/04 05:43:34;;;;;;;8.70;5.97;;;18.80;99.90;;;;;;5069524;28;20210;-73
2021/06/04 05:46:02;;;;;;;5.80;5.20;;;18.80;99.90;;;;;;5070280;28;20277;-73
2021/06/04 05:48:29;;;;;;;6.22;4.53;;;18.80;99.90;;;;;;5070079;28;20287;-74
2021/06/04 05:51:01;;;;;;;5.63;3.78;;;18.80;99.90;;;;;;5070002;28;20198;-73
2021/06/04 05:53:31;;;;;;;5.03;4.53;;;18.70;99.90;;;;;;5069423;28;20202;-73
2021/06/04 05:55:59;;;;;;;4.05;3.70;;;18.60;99.90;;;;;;5069779;28;20216;-73
2021/06/04 05:58:27;;;;;;;2.22;1.90;;;18.60;99.90;;;;;;5069798;28;20210;-73
2021/06/04 06:00:56;;;;;;;2.85;1.55;;;18.30;99.90;;;;;;5069893;28;20206;-72
2021/06/04 06:03:25;;;;;;;1.70;1.58;;;18.10;99.90;;;;;;5070261;28;20210;-73
2021/06/04 06:05:52;;;;;;;2.78;1.73;;;18.00;99.90;;;;;;5071126;28;20197;-77
2021/06/04 06:08:20;;;;;;;2.55;1.67;;;18.10;99.90;;;;;;5069868;28;20279;-82
2021/06/04 06:10:47;;;;;;;2.95;1.65;;;18.00;99.90;;;;;;5076996;28;20201;-77
2021/06/04 06:13:13;;;;;;;5.88;1.83;;;18.00;99.90;;;;;;5078240;28;20206;-82
2021/06/04 06:15:40;;;;;;;1.40;1.30;;;17.90;99.90;;;;;;5084248;28;20197;-82
2021/06/04 06:18:07;;;;;;;2.45;1.70;;;17.70;99.90;;;;;;5073956;28;20438;-80
2021/06/04 06:20:37;;;;;;;1.33;1.23;;;17.70;99.90;;;;;;5073052;28;20206;-73
2021/06/04 06:23:05;;;;;;;1.52;1.40;;;17.90;99.90;;;;;;5077312;28;20647;-74
2021/06/04 06:25:38;;;;;;;1.92;1.70;;;17.80;99.90;;;;;;5082917;28;20255;-74
2021/06/04 06:28:06;;;;;;;1.48;1.33;;;17.90;99.90;;;;;;5086058;28;20246;-76
2021/06/04 06:30:35;;;;;;;3.22;1.45;;;18.00;99.90;;;;;;5078283;28;20311;-76
2021/06/04 06:33:02;;;;;;;2.35;1.60;;;18.00;99.90;;;;;;5084365;28;20210;-75
2021/06/04 06:35:33;;;;;;;3.70;1.85;;;18.10;99.90;;;;;;5072952;28;20206;-75
2021/06/04 06:38:00;;;;;;;2.42;1.73;;;18.10;99.90;;;;;;5073681;28;20209;-74
2021/06/04 06:40:27;;;;;;;3.55;2.50;;;18.10;99.90;;;;;;5072799;28;20221;-74
2021/06/04 06:42:56;;;;;;;3.20;2.40;;;18.10;99.90;;;;;;5071839;28;20214;-75
2021/06/04 06:45:24;;;;;;;2.92;2.67;;;18.20;99.90;;;;;;5079885;28;20197;-74
2021/06/04 06:47:52;;;;;;;2.97;2.30;;;18.30;99.90;;;;;;5077885;28;20609;-74
2021/06/04 06:50:20;;;;;;;2.95;2.38;;;17.50;99.90;;;;;;5082398;28;20232;-74
2021/06/04 06:52:48;;;;;;;5.50;2.15;;;18.10;99.90;;;;;;5078529;28;20285;-75
2021/06/04 06:55:14;;;;;;;2.75;2.55;;;18.10;99.90;;;;;;5083741;28;20588;-74
2021/06/04 06:57:41;;;;;;;3.20;2.92;;;18.00;99.90;;;;;;5079671;28;20714;-72
2021/06/04 07:00:14;;;;;;;3.08;2.78;;;17.90;99.90;;;;;;5079580;28;20210;-72
2021/06/04 07:02:40;;;;;;;5.28;2.50;;;18.00;99.90;;;;;;5073347;28;20194;-73
2021/06/04 07:05:08;;;;;;;2.05;1.92;;;18.00;99.90;;;;;;5081478;28;20197;-73
2021/06/04 07:07:38;;;;;;;2.00;1.85;;;18.00;99.90;;;;;;5079599;28;20256;-73
2021/06/04 07:10:06;;;;;;;3.45;1.92;;;18.20;99.90;;;;;;5071183;28;20713;-75
2021/06/04 07:12:33;;;;;;;2.60;2.40;;;18.20;99.90;;;;;;5074145;28;20256;-78
2021/06/04 07:14:59;;;;;;;2.92;2.63;;;18.10;99.90;;;;;;5091066;28;20197;-74
2021/06/04 07:17:29;;;;;;;2.92;2.28;;;18.20;99.90;;;;;;5079428;28;20206;-73
2021/06/04 07:19:56;;;;;;;2.13;1.92;;;18.10;99.90;;;;;;5073271;28;20221;-72
2021/06/04 07:22:23;;;;;;;4.20;2.40;;;17.90;99.90;;;;;;5071633;28;20686;-73
2021/06/04 07:24:49;;;;;;;2.50;2.28;;;18.10;99.90;;;;;;5080013;28;20258;-73
2021/06/04 07:27:16;;;;;;;2.88;2.63;;;18.20;99.90;;;;;;5072524;28;20205;-73
2021/06/04 07:29:42;;;;;;;2.70;2.50;;;18.20;99.90;;;;;;5078914;28;20233;-71
2021/06/04 07:32:09;;;;;;;3.40;3.10;;;18.20;99.90;;;;;;5078459;28;20662;-71
2021/06/04 07:34:37;;;;;;;4.03;2.85;;;18.20;99.90;;;;;;5080124;28;20209;-71
2021/06/04 07:37:04;;;;;;;4.57;3.33;;;18.10;99.90;;;;;;5076614;28;20214;-71
2021/06/04 07:39:33;;;;;;;5.28;3.20;;;18.00;99.90;;;;;;5080797;28;20206;-71
2021/06/04 07:42:00;;;;;;;3.28;2.80;;;18.00;99.90;;;;;;5076015;28;20689;-71
2021/06/04 07:44:27;;;;;;;3.17;2.97;;;17.90;99.90;;;;;;5071840;28;20206;-72
2021/06/04 07:46:56;;;;;;;3.47;2.85;;;18.00;99.90;;;;;;5072034;28;20355;-72
2021/06/04 07:49:23;;;;;;;4.10;3.20;;;17.90;99.90;;;;;;5072363;28;20355;-73
2021/06/04 07:51:56;;;;;;;3.75;3.00;;;18.10;99.90;;;;;;5072494;28;20205;-72
2021/06/04 07:54:23;;;;;;;4.53;3.33;;;18.20;99.90;;;;;;5072071;28;20210;-73
2021/06/04 07:56:50;;;;;;;3.30;3.00;;;18.40;99.90;;;;;;5071960;28;20206;-72
2021/06/04 07:59:17;;;;;;;4.32;3.90;;;18.30;99.90;;;;;;5072421;28;20210;-72
2021/06/04 08:01:44;;;;;;;4.25;3.80;;;18.40;99.90;;;;;;5071390;28;20646;-72
2021/06/04 08:04:11;;;;;;;4.50;4.10;;;18.50;99.90;;;;;;5071695;28;20627;-72
2021/06/04 08:06:39;;;;;;;5.53;5.03;;;18.70;99.90;;;;;;5071419;28;20669;-72
2021/06/04 08:09:10;;;;;;;4.97;4.43;;;18.80;99.90;;;;;;5078613;28;20225;-72
2021/06/04 08:11:39;;;;;;;5.13;4.63;;;18.80;99.90;;;;;;5071297;28;20208;-72
2021/06/04 08:14:09;;;;;;;6.25;4.80;;;18.80;99.90;;;;;;5071791;28;20371;-72
2021/06/04 08:16:39;;;;;;;4.72;4.32;;;19.00;99.90;;;;;;5070482;28;20673;-72
2021/06/04 08:19:05;;;;;;;5.43;4.25;;;19.20;99.90;;;;;;5071839;28;20213;-72
2021/06/04 08:21:37;;;;;;;4.97;4.47;;;19.10;99.90;;;;;;5071077;28;20227;-72
2021/06/04 08:24:04;;;;;;;6.30;3.70;;;19.00;99.90;;;;;;5071822;28;20214;-72
2021/06/04 08:26:33;;;;;;;4.00;3.40;;;19.20;99.90;;;;;;5070967;28;20611;-72
2021/06/04 08:29:01;;;;;;;4.20;2.92;;;19.20;99.90;;;;;;5071735;28;20321;-72
2021/06/04 08:31:28;;;;;;;4.30;2.80;;;19.40;99.90;;;;;;5071351;28;20673;-73
2021/06/04 08:33:55;;;;;;;5.97;3.42;;;19.50;99.90;;;;;;5071058;28;20742;-73
2021/06/04 08:36:25;;;;;;;4.78;3.20;;;19.30;99.90;;;;;;5071145;28;20213;-73
2021/06/04 08:38:55;;;;;;;2.58;2.33;;;19.10;99.90;;;;;;5070959;28;20206;-72
2021/06/04 08:41:37;;;;;;;5.32;3.83;;;19.10;99.90;;;;;;5071548;28;20229;-73
2021/06/04 08:44:33;;;;;;;6.30;3.13;;;18.80;99.90;;;;;;5071272;28;20645;-72
2021/06/04 08:47:03;;;;;;;4.00;2.78;;;18.90;99.90;;;;;;5071292;28;20229;-72
2021/06/04 08:49:47;;;;;;;5.22;2.45;;;19.10;99.90;;;;;;5070972;28;20230;-72
2021/06/04 08:52:20;;;;;;;3.10;2.90;;;19.30;99.90;;;;;;5070944;28;20206;-72
2021/06/04 08:54:53;;;;;;;2.58;2.35;;;19.60;99.90;;;;;;5070948;28;20198;-72
2021/06/04 08:57:38;;;;;;;2.85;2.58;;;19.80;99.90;;;;;;5071011;28;20210;-73
2021/06/04 09:00:07;;;;;;;3.30;3.00;;;19.80;99.90;;;;;;5070847;28;20256;-73
2021/06/04 09:02:39;;;;;;;3.53;2.55;;;19.70;99.90;;;;;;5070479;28;20198;-73
2021/06/04 09:05:11;;;;;;;3.47;3.17;;;19.70;99.90;;;;;;5068586;28;20206;-73
2021/06/04 09:07:42;;;;;;;3.35;3.08;;;19.70;99.90;;;;;;5066258;28;20206;-75
2021/06/04 09:10:13;;;;;;;3.70;3.25;;;19.70;99.90;;;;;;5071973;28;20593;-75
2021/06/04 09:12:48;;;;;;;3.33;3.03;;;19.50;99.90;;;;;;5072718;28;20209;-75
2021/06/04 09:15:18;;;;;;;3.92;2.92;;;19.10;99.90;;;;;;5081173;28;20210;-74
2021/06/04 09:17:52;;;;;;;3.30;3.03;;;19.00;99.90;;;;;;5073612;28;20584;-73
2021/06/04 09:20:38;;;;;;;5.53;3.30;;;18.80;99.90;;;;;;5076500;28;20296;-73
2021/06/04 09:23:08;;;;;;;3.08;2.88;;;18.60;99.90;;;;;;5081871;28;20362;-72
2021/06/04 09:25:36;;;;;;;6.32;3.38;;;18.60;99.90;;;;;;5075692;28;20214;-72
2021/06/04 09:28:26;;;;;;;4.03;3.72;;;18.50;99.90;;;;;;5085570;28;20208;-73
2021/06/04 09:30:54;;;;;;;2.28;2.08;;;18.50;99.90;;;;;;5064983;28;20206;-73
2021/06/04 09:33:24;;;;;;;3.30;3.00;;;18.40;99.90;;;;;;5070550;28;20218;-73
2021/06/04 09:36:08;;;;;;;4.45;3.03;;;18.60;99.90;;;;;;5068883;28;20205;-73
2021/06/04 09:38:40;;;;;;;3.72;3.42;;;18.50;99.90;;;;;;5070095;28;20259;-72
2021/06/04 09:41:21;;;;;;;3.30;3.00;;;18.40;99.90;;;;;;5070808;28;20210;-73
2021/06/04 09:44:02;;;;;;;4.70;3.85;;;18.40;99.90;;;;;;5067077;28;20264;-72
2021/06/04 09:46:32;;;;;;;2.95;2.75;;;18.50;99.90;;;;;;5075075;28;20194;-73
2021/06/04 09:49:01;;;;;;;3.58;3.25;;;18.60;99.90;;;;;;5068857;28;20701;-73
2021/06/04 09:51:32;;;;;;;2.75;2.55;;;18.80;99.90;;;;;;5067777;28;20209;-73
2021/06/04 09:54:23;;;;;;;3.45;3.15;;;19.00;99.90;;;;;;5069773;28;20202;-72
2021/06/04 09:56:50;;;;;;;3.97;2.72;;;19.10;99.90;;;;;;5070484;28;20206;-72
2021/06/04 09:59:22;;;;;;;3.97;3.05;;;19.30;99.90;;;;;;5070501;28;20255;-72
2021/06/04 10:01:53;;;;;;;3.92;3.60;;;19.30;99.90;;;;;;5069240;28;20727;-72
2021/06/04 10:04:27;;;;;;;5.25;3.28;;;19.20;99.90;;;;;;5069984;28;20614;-72
2021/06/04 10:07:01;;;;;;;4.22;3.33;;;19.20;99.90;;;;;;5069906;28;20201;-72
2021/06/04 10:09:38;;;;;;;7.13;4.38;;;19.10;99.90;;;;;;5069423;28;20229;-72
2021/06/04 10:12:08;;;;;;;6.95;3.88;;;19.10;99.90;;;;;;5069779;28;20210;-72
2021/06/04 10:14:52;;;;;;;3.72;3.42;;;18.90;99.90;;;;;;5069489;28;20210;-72
2021/06/04 10:17:41;;;;;;;4.72;4.15;;;18.80;99.90;;;;;;5062471;28;20210;-72
2021/06/04 10:20:29;;;;;;;4.22;3.67;;;18.60;99.90;;;;;;5067778;28;20678;-72
2021/06/04 10:23:06;;;;;;;3.47;3.20;;;18.40;99.90;;;;;;5069916;28;20218;-72
2021/06/04 10:25:49;;;;;;;3.60;3.30;;;18.30;99.90;;;;;;5056045;28;20237;-72
2021/06/04 10:28:36;;;;;;;4.00;3.70;;;18.20;99.90;;;;;;5070281;28;20213;-73
2021/06/04 10:31:27;;;;;;;4.70;3.95;;;18.40;99.90;;;;;;5068975;28;20213;-72
2021/06/04 10:34:02;;;;;;;4.65;4.25;;;18.50;99.90;;;;;;5068743;28;20228;-72
2021/06/04 10:36:33;;;;;;;3.90;3.38;;;18.30;99.90;;;;;;5065554;28;20210;-72
2021/06/04 10:39:06;;;;;;;3.92;3.63;;;18.20;99.90;;;;;;5075672;28;20225;-73
2021/06/04 10:41:42;;;;;;;4.18;3.35;;;18.20;99.90;;;;;;5069734;28;20320;-73
2021/06/04 10:44:19;;;;;;;3.60;3.30;;;18.20;99.90;;;;;;5069685;28;20202;-74
2021/06/04 10:46:49;;;;;;;3.85;3.55;;;18.30;99.90;;;;;;5070963;28;20731;-70
2021/06/04 10:49:32;;;;;;;3.42;3.13;;;18.40;99.90;;;;;;5069186;28;20237;-70
2021/06/04 10:52:07;;;;;;;3.90;3.55;;;18.70;99.90;;;;;;5068495;28;20202;-70
2021/06/04 10:54:47;;;;;;;3.95;3.65;;;18.80;99.90;;;;;;5069541;28;20586;-70
2021/06/04 10:57:18;;;;;;;4.07;3.67;;;18.70;99.90;;;;;;5069255;28;20557;-70
2021/06/04 10:59:54;;;;;;;3.72;3.42;;;18.50;99.90;;;;;;5078212;28;20220;-71
2021/06/04 11:02:32;;;;;;;4.47;4.07;;;18.50;99.90;;;;;;5072828;28;20202;-70
2021/06/04 11:05:12;;;;;;;4.28;3.88;;;18.50;99.90;;;;;;5081174;28;20224;-71
2021/06/04 11:07:49;;;;;;;3.58;3.28;;;18.30;99.90;;;;;;5073773;28;20206;-71
2021/06/04 11:10:21;;;;;;;4.22;3.92;;;18.40;99.90;;;;;;5072797;28;20221;-71
2021/06/04 11:12:59;;;;;;;4.13;3.65;;;18.20;99.90;;;;;;5073222;28;20251;-70
2021/06/04 11:15:30;;;;;;;3.55;3.22;;;18.10;99.90;;;;;;5072529;28;20217;-71
2021/06/04 11:18:03;;;;;;;6.10;3.78;;;17.90;99.90;;;;;;5069508;28;20720;-70
2021/06/04 11:20:36;;;;;;;8.40;4.43;;;17.80;99.90;;;;;;5059273;28;20214;-71
2021/06/04 11:23:06;;;;;;;8.73;4.28;;;17.70;99.90;;;;;;5072644;28;20558;-71
2021/06/04 11:25:39;;;;;;;4.15;3.63;;;17.90;99.90;;;;;;5072601;28;20257;-70
2021/06/04 11:28:10;;;;;;;6.00;3.95;;;18.00;99.90;;;;;;5071430;28;20202;-71
2021/06/04 11:30:39;;;;;;;3.70;3.38;;;17.90;99.90;;;;;;5068815;28;20228;-72
2021/06/04 11:33:14;;;;;;;4.18;2.38;;;17.90;99.90;;;;;;5073454;28;20206;-71
2021/06/04 11:35:45;;;;;;;4.15;2.78;;;17.70;99.90;;;;;;5061131;28;20220;-70
2021/06/04 11:38:20;;;;;;;6.18;3.22;;;17.70;99.90;;;;;;5074007;28;20285;-73
2021/06/04 11:40:50;;;;;;;3.55;2.05;;;17.70;99.90;;;;;;5076310;28;20205;-72
2021/06/04 11:43:24;;;;;;;2.53;1.95;;;17.70;99.90;;;;;;5077063;28;20207;-72
2021/06/04 11:46:16;;;;;;;5.82;2.58;;;17.80;99.90;;;;;;5078500;28;20213;-75
2021/06/04 11:49:02;;;;;;;3.67;2.80;;;17.70;99.90;;;;;;5074534;28;20230;-76
2021/06/04 11:51:39;;;;;;;2.25;2.05;;;17.60;99.90;;;;;;5088436;28;20197;-77
2021/06/04 11:54:23;;;;;;;2.97;1.33;;;17.60;99.90;;;;;;5072541;28;20206;-76
2021/06/04 11:56:58;;;;;;;2.65;1.27;;;17.50;99.90;;;;;;5075939;28;20197;-74
2021/06/04 12:00:01;;;;;;;4.28;1.45;;;17.50;99.90;;;;;;5081587;28;20216;-76
2021/06/04 12:02:40;;;;;;;2.30;0.82;;;17.60;99.90;;;;;;5084274;28;20205;-77
2021/06/04 12:05:39;;;;;;;0.57;0.50;;;17.50;99.90;;;;;;5073275;28;20206;-77
2021/06/04 12:08:44;;;;;;;1.55;1.08;;;17.60;99.90;;;;;;5076006;28;20213;-76
2021/06/04 12:11:28;;;;;;;2.67;1.40;;;17.80;99.90;;;;;;5083454;28;20209;-77
2021/06/04 12:14:18;;;;;;;1.67;1.50;;;17.70;99.90;;;;;;5089940;28;20216;-77
2021/06/04 12:16:47;;;;;;;2.72;1.52;;;17.60;99.90;;;;;;5061402;28;20957;-77
2021/06/04 12:19:38;;;;;;;1.35;1.17;;;17.60;99.90;;;;;;5071027;28;20219;-74
2021/06/04 12:22:35;;;;;;;2.70;1.35;;;17.40;99.90;;;;;;5068239;28;20221;-77
2021/06/04 12:25:06;;;;;;;1.70;1.40;;;17.40;99.90;;;;;;5077095;28;20617;-76
2021/06/04 12:28:03;;;;;;;1.48;1.38;;;17.40;99.90;;;;;;5073297;28;20254;-77
2021/06/04 12:30:56;;;;;;;3.20;1.48;;;17.40;99.90;;;;;;5080374;28;20226;-76
2021/06/04 12:33:57;;;;;;;2.33;1.13;;;17.30;99.90;;;;;;5088402;28;20202;-76
2021/06/04 12:36:53;;;;;;;1.38;1.10;;;17.40;99.90;;;;;;5065602;28;20263;-76
2021/06/04 12:39:52;;;;;;;2.60;1.30;;;17.40;99.90;;;;;;5075325;28;20207;-77
2021/06/04 12:42:35;;;;;;;2.75;1.25;;;17.30;99.90;;;;;;5069710;28;20643;-76
2021/06/04 12:45:10;;;;;;;2.70;1.30;;;17.20;99.90;;;;;;5079802;28;20212;-76
2021/06/04 12:47:45;;;;;;;1.65;1.25;;;17.10;99.90;;;;;;5076096;28;20276;-77
2021/06/04 12:50:19;;;;;;;1.40;1.05;;;17.10;99.90;;;;;;5082619;28;20237;-76
2021/06/04 12:52:46;;;;;;;6.18;1.83;;;17.30;99.90;;;;;;5063071;28;20206;-77
2021/06/04 12:55:20;;;;;;;3.30;1.38;;;17.40;99.90;;;;;;5071076;28;20210;-77
2021/06/04 12:57:47;;;;;;;1.73;1.13;;;17.40;99.90;;;;;;5067232;28;20229;-76
2021/06/04 13:00:16;;;;;;;1.95;1.35;;;17.50;99.90;;;;;;5072445;28;20206;-76
2021/06/04 13:02:43;;;;;;;1.75;1.10;;;17.60;99.90;;;;;;5071074;28;20210;-78
2021/06/04 13:05:11;;;;;;;2.75;1.10;;;17.70;99.90;;;;;;5073239;28;20203;-76
2021/06/04 13:07:41;;;;;;;2.28;1.10;;;18.10;99.90;;;;;;5074056;28;20206;-75
2021/06/04 13:10:13;;;;;;;2.13;0.82;;;18.40;99.90;;;;;;5071850;28;20283;-75